This is the latest recevied weather packets stored in our database for station/object K2ATL. If no packets are shown the sender has not sent any weather packets the latest 10 day(s).
| Time | Temp. | Humidity | Pressure | Rain* | Wind** | Luminosity | Snow |
|---|---|---|---|---|---|---|---|
| 1777610907 | 11.67° C | 63% | 1097.8 hPa | 0 mm | - | 0 W/m² | - |
| 1777610601 | 11.67° C | 64% | 1097.9 hPa | 0 mm | - | 0 W/m² | - |
| 1777610300 | 11.11° C | 67% | 1097.9 hPa | 0 mm | - | 0 W/m² | - |
| 1777609998 | 11.11° C | 70% | 1097.8 hPa | 0 mm | - | 0 W/m² | - |
| 1777609694 | 11.67° C | 70% | 1097.8 hPa | 0 mm | - | 0 W/m² | - |
| 1777609391 | 11.67° C | 68% | 1097.8 hPa | 0 mm | - | 0 W/m² | - |
| 1777609089 | 12.22° C | 63% | 1098 hPa | 0 mm | - | 0 W/m² | - |
| 1777608786 | 12.78° C | 56% | 1097.8 hPa | 0 mm | - | 0 W/m² | - |
| 1777608482 | 12.78° C | 56% | 1097.9 hPa | 0 mm | - | 0 W/m² | - |
| 1777608181 | 12.22° C | 57% | 1098.1 hPa | 0 mm | - | 0 W/m² | - |
| 1777607877 | 12.78° C | 57% | 1098.3 hPa | 0 mm | - | 0 W/m² | - |
| 1777607573 | 12.78° C | 58% | 1098.3 hPa | 0 mm | - | 0 W/m² | - |
| 1777607269 | 12.78° C | 57% | 1098 hPa | 0 mm | - | 0 W/m² | - |
| 1777606965 | 12.78° C | 58% | 1098.3 hPa | 0 mm | - | 0 W/m² | - |
| 1777606662 | 12.22° C | 59% | 1098.1 hPa | 0 mm | - | 0 W/m² | - |
| 1777606358 | 12.78° C | 60% | 1098.1 hPa | 0 mm | - | 0 W/m² | - |
| 1777606058 | 12.78° C | 60% | 1098 hPa | 0 mm | - | 0 W/m² | - |
| 1777605753 | 12.78° C | 59% | 1098.1 hPa | 0 mm | - | 0 W/m² | - |
| 1777605452 | 12.78° C | 61% | 1098.4 hPa | 0 mm | - | 0 W/m² | - |
| 1777605150 | 12.78° C | 59% | 1098.5 hPa | 0 mm | - | 0 W/m² | - |
| 1777604845 | 12.78° C | 60% | 1098.4 hPa | 0 mm | - | 0 W/m² | - |
| 1777604542 | 12.78° C | 59% | 1098.4 hPa | 0 mm | - | 0 W/m² | - |
| 1777604237 | 12.78° C | 62% | 1098.4 hPa | 0 mm | - | 0 W/m² | - |
| 1777603933 | 12.22° C | 63% | 1098.5 hPa | 0 mm | - | 0 W/m² | - |
| 1777603630 | 12.22° C | 64% | 1098.8 hPa | 0 mm | - | 0 W/m² | - |
* Rain latest hour (hover to see other rain measurements)
** Current wind speed in m/s (hover to see current wind gust speed)